createdAt,value
2022-11-07T00:01:37.893Z,9.23
2022-11-07T00:04:05.199Z,6.78
2022-11-07T00:06:32.241Z,10.07
2022-11-07T00:08:59.797Z,10.63
2022-11-07T00:11:26.735Z,9.52
2022-11-07T00:13:54.216Z,10.63
2022-11-07T00:16:21.272Z,8.10
2022-11-07T00:18:48.362Z,7.93
2022-11-07T00:21:15.467Z,9.38
2022-11-07T00:23:43.501Z,9.05
2022-11-07T00:26:13.737Z,8.40
2022-11-07T00:28:43.197Z,10.50
2022-11-07T00:31:12.788Z,9.90
2022-11-07T00:33:40.584Z,10.30
2022-11-07T00:36:09.385Z,5.97
2022-11-07T00:38:36.795Z,9.43
2022-11-07T00:41:06.731Z,6.05
2022-11-07T00:43:34.594Z,5.38
2022-11-07T00:46:04.314Z,8.90
2022-11-07T00:48:32.192Z,10.85
2022-11-07T00:51:12.242Z,8.98
2022-11-07T00:53:40.020Z,5.82
2022-11-07T00:56:11.847Z,7.03
2022-11-07T00:58:41.511Z,7.68
2022-11-07T01:01:26.432Z,7.53
2022-11-07T01:04:12.378Z,5.72
2022-11-07T01:06:43.000Z,10.18
2022-11-07T01:09:14.801Z,8.90
2022-11-07T01:11:42.432Z,9.70
2022-11-07T01:14:12.071Z,7.45
2022-11-07T01:16:39.933Z,11.35
2022-11-07T01:19:07.989Z,8.20
2022-11-07T01:21:37.771Z,9.73
2022-11-07T01:24:06.523Z,10.23
2022-11-07T01:26:33.526Z,7.68
2022-11-07T01:29:00.509Z,5.57
2022-11-07T01:31:27.833Z,5.25
2022-11-07T01:33:55.047Z,10.85
2022-11-07T01:36:22.052Z,8.25
2022-11-07T01:38:49.324Z,5.15
2022-11-07T01:41:25.648Z,7.50
2022-11-07T01:43:57.303Z,6.10
2022-11-07T01:46:35.933Z,6.03
2022-11-07T01:49:17.606Z,8.95
2022-11-07T01:51:49.518Z,8.18
2022-11-07T01:54:26.853Z,6.97
2022-11-07T01:56:58.943Z,8.50
2022-11-07T01:59:29.493Z,8.20
2022-11-07T02:01:56.894Z,6.85
2022-11-07T02:04:27.891Z,8.40
2022-11-07T02:07:06.102Z,9.32
2022-11-07T02:09:33.440Z,9.73
2022-11-07T02:12:01.271Z,8.43
2022-11-07T02:14:29.988Z,5.68
2022-11-07T02:16:57.267Z,8.95
2022-11-07T02:19:44.273Z,8.15
2022-11-07T02:22:56.840Z,7.75
2022-11-07T02:25:23.932Z,10.23
2022-11-07T02:28:00.754Z,7.63
2022-11-07T02:30:34.679Z,10.02
2022-11-07T02:33:02.923Z,8.90
2022-11-07T02:35:44.489Z,7.55
2022-11-07T02:38:18.057Z,8.40
2022-11-07T02:40:50.259Z,7.13
2022-11-07T02:43:20.474Z,8.27
2022-11-07T02:45:49.915Z,8.60
2022-11-07T02:48:17.315Z,8.13
2022-11-07T02:50:45.110Z,11.68
2022-11-07T02:53:12.465Z,5.80
2022-11-07T02:55:40.179Z,7.93
2022-11-07T02:58:07.520Z,4.15
2022-11-07T03:00:34.580Z,10.48
2022-11-07T03:03:01.842Z,7.72
2022-11-07T03:05:28.928Z,8.95
2022-11-07T03:07:55.970Z,6.88
2022-11-07T03:10:22.964Z,8.65
2022-11-07T03:12:49.911Z,7.82
2022-11-07T03:15:16.902Z,10.02
2022-11-07T03:17:43.873Z,7.82
2022-11-07T03:20:11.596Z,8.88
2022-11-07T03:22:38.887Z,9.63
2022-11-07T03:25:07.682Z,13.98
2022-11-07T03:27:34.883Z,9.30
2022-11-07T03:30:02.020Z,7.55
2022-11-07T03:32:28.996Z,5.93
2022-11-07T03:34:56.017Z,10.13
2022-11-07T03:37:23.004Z,9.32
2022-11-07T03:39:49.977Z,5.60
2022-11-07T03:42:16.953Z,11.00
2022-11-07T03:44:43.952Z,6.85
2022-11-07T03:47:10.928Z,10.88
2022-11-07T03:49:37.925Z,7.22
2022-11-07T03:52:05.161Z,5.45
2022-11-07T03:54:32.096Z,9.52
2022-11-07T03:56:59.185Z,7.70
2022-11-07T03:59:26.215Z,8.60
2022-11-07T04:01:53.435Z,8.45
2022-11-07T04:04:20.542Z,6.28
2022-11-07T04:06:47.483Z,6.53
2022-11-07T04:09:14.493Z,9.77
2022-11-07T04:11:59.718Z,6.82
2022-11-07T04:14:45.422Z,7.13
2022-11-07T04:17:21.686Z,5.25
2022-11-07T04:19:51.826Z,6.25
2022-11-07T04:22:19.562Z,4.95
2022-11-07T04:24:46.864Z,5.68
2022-11-07T04:27:34.808Z,6.35
2022-11-07T04:30:23.878Z,10.45
2022-11-07T04:32:53.595Z,7.28
2022-11-07T04:35:24.099Z,7.03
2022-11-07T04:37:51.158Z,6.35
2022-11-07T04:40:19.799Z,4.55
2022-11-07T04:42:48.282Z,6.05
2022-11-07T04:45:16.373Z,6.55
2022-11-07T04:47:44.055Z,6.30
2022-11-07T04:50:14.659Z,5.90
2022-11-07T04:52:41.825Z,6.35
2022-11-07T04:55:18.774Z,8.82
2022-11-07T04:57:45.885Z,6.18
2022-11-07T05:00:13.741Z,8.75
2022-11-07T05:02:40.802Z,9.80
2022-11-07T05:05:08.420Z,11.77
2022-11-07T05:07:35.431Z,8.38
2022-11-07T05:10:02.434Z,8.10
2022-11-07T05:12:29.540Z,10.25
2022-11-07T05:14:56.629Z,8.63
2022-11-07T05:17:27.814Z,4.72
2022-11-07T05:19:55.175Z,6.75
2022-11-07T05:22:40.460Z,6.13
2022-11-07T05:25:08.590Z,9.13
2022-11-07T05:27:35.543Z,7.00
2022-11-07T05:30:02.613Z,6.88
2022-11-07T05:32:29.587Z,5.97
2022-11-07T05:34:56.644Z,8.00
2022-11-07T05:37:23.657Z,6.78
2022-11-07T05:39:54.831Z,7.30
2022-11-07T05:42:22.179Z,9.30
2022-11-07T05:44:49.142Z,10.48
2022-11-07T05:47:16.119Z,9.70
2022-11-07T05:49:43.246Z,7.63
2022-11-07T05:52:10.241Z,6.20
2022-11-07T05:54:37.209Z,5.70
2022-11-07T05:57:04.280Z,5.45
2022-11-07T05:59:31.357Z,5.45
2022-11-07T06:01:58.453Z,8.52
2022-11-07T06:04:25.466Z,6.03
2022-11-07T06:06:52.414Z,5.97
2022-11-07T06:09:19.372Z,7.82
2022-11-07T06:11:46.387Z,6.22
2022-11-07T06:14:13.384Z,4.90
2022-11-07T06:16:40.307Z,4.88
2022-11-07T06:19:07.303Z,5.38
2022-11-07T06:21:35.527Z,7.15
2022-11-07T06:24:03.416Z,7.53
2022-11-07T06:26:30.584Z,6.07
2022-11-07T06:28:57.566Z,5.68
2022-11-07T06:31:24.557Z,6.72
2022-11-07T06:33:52.039Z,4.75
2022-11-07T06:36:19.555Z,6.63
2022-11-07T06:38:51.520Z,5.13
2022-11-07T06:41:18.484Z,5.57
2022-11-07T06:43:45.406Z,5.55
2022-11-07T06:46:14.294Z,4.82
2022-11-07T06:48:41.249Z,6.30
2022-11-07T06:51:09.988Z,5.20
2022-11-07T06:53:38.170Z,4.80
2022-11-07T06:56:08.451Z,8.30
2022-11-07T06:58:36.403Z,7.78
2022-11-07T07:01:06.632Z,6.30
2022-11-07T07:03:33.640Z,5.80
2022-11-07T07:06:03.582Z,5.93
2022-11-07T07:08:31.147Z,6.43
2022-11-07T07:11:07.372Z,6.25
2022-11-07T07:13:35.228Z,6.28
2022-11-07T07:16:02.713Z,5.25
2022-11-07T07:18:30.952Z,6.60
2022-11-07T07:21:11.461Z,5.55
2022-11-07T07:23:39.175Z,5.93
2022-11-07T07:26:11.947Z,5.78
2022-11-07T07:28:38.966Z,5.43
2022-11-07T07:31:14.892Z,4.95
2022-11-07T07:33:43.053Z,8.75
2022-11-07T07:36:10.795Z,5.75
2022-11-07T07:38:38.577Z,6.15
2022-11-07T07:41:06.372Z,4.82
2022-11-07T07:43:33.789Z,9.13
2022-11-07T07:46:04.098Z,5.40
2022-11-07T07:48:31.723Z,6.15
2022-11-07T07:50:59.195Z,5.72
2022-11-07T07:53:26.382Z,5.32
2022-11-07T07:56:00.644Z,5.90
2022-11-07T07:58:28.083Z,6.78
2022-11-07T08:00:59.188Z,4.68
2022-11-07T08:03:31.959Z,6.95
2022-11-07T08:06:03.011Z,4.70
2022-11-07T08:08:35.281Z,4.72
2022-11-07T08:11:08.685Z,4.25
2022-11-07T08:13:36.321Z,4.97
2022-11-07T08:16:05.453Z,6.43
2022-11-07T08:18:32.539Z,6.95
2022-11-07T08:20:59.540Z,5.00
2022-11-07T08:23:26.475Z,4.60
2022-11-07T08:25:59.003Z,6.47
2022-11-07T08:28:30.563Z,4.25
2022-11-07T08:31:05.793Z,5.40
2022-11-07T08:33:33.338Z,5.70
2022-11-07T08:36:02.740Z,5.72
2022-11-07T08:38:31.870Z,5.10
2022-11-07T08:40:59.282Z,8.13
2022-11-07T08:43:27.023Z,6.63
2022-11-07T08:45:55.227Z,5.57
2022-11-07T08:48:23.268Z,4.60
2022-11-07T08:50:56.078Z,5.55
2022-11-07T08:53:25.038Z,7.10
2022-11-07T08:55:52.456Z,7.53
2022-11-07T08:58:20.084Z,5.05
2022-11-07T09:00:47.242Z,3.72
2022-11-07T09:06:03.078Z,4.68
2022-11-07T09:08:30.141Z,6.13
2022-11-07T09:11:04.918Z,6.85
2022-11-07T09:13:33.943Z,4.35
2022-11-07T09:16:02.681Z,5.78
2022-11-07T09:18:32.427Z,10.65
2022-11-07T09:21:00.292Z,6.78
2022-11-07T09:23:27.824Z,5.72
2022-11-07T09:25:55.460Z,4.95
2022-11-07T09:28:22.600Z,5.53
2022-11-07T09:30:57.599Z,7.47
2022-11-07T09:33:25.643Z,4.55
2022-11-07T09:35:52.934Z,6.68
2022-11-07T09:38:20.344Z,5.10
2022-11-07T09:41:04.749Z,5.15
2022-11-07T09:43:50.274Z,5.18
2022-11-07T09:46:45.804Z,5.25
2022-11-07T09:49:20.994Z,4.95
2022-11-07T09:51:55.611Z,5.55
2022-11-07T09:54:28.674Z,5.35
2022-11-07T09:56:58.675Z,4.38
2022-11-07T09:59:42.213Z,8.55
2022-11-07T10:02:17.666Z,5.55
2022-11-07T10:04:46.289Z,5.38
2022-11-07T10:07:49.237Z,4.30
2022-11-07T10:10:44.608Z,4.55
2022-11-07T10:14:19.240Z,7.00
2022-11-07T10:17:13.622Z,8.00
2022-11-07T10:19:52.163Z,7.70
2022-11-07T10:22:22.206Z,8.77
2022-11-07T10:25:13.224Z,6.82
2022-11-07T10:27:40.528Z,11.20
2022-11-07T10:30:25.516Z,7.55
2022-11-07T10:33:31.751Z,7.78
2022-11-07T10:36:13.502Z,8.02
2022-11-07T10:38:42.340Z,7.20
2022-11-07T10:41:20.683Z,7.05
2022-11-07T10:43:58.499Z,5.55
2022-11-07T10:46:36.630Z,7.45
2022-11-07T10:49:13.240Z,7.32
2022-11-07T10:51:42.882Z,6.13
2022-11-07T10:54:30.565Z,6.10
2022-11-07T10:57:09.556Z,3.70
2022-11-07T10:59:57.850Z,4.53
2022-11-07T11:02:32.652Z,5.05
2022-11-07T11:05:03.006Z,6.10
2022-11-07T11:07:40.867Z,5.15
2022-11-07T11:10:27.384Z,4.43
2022-11-07T11:12:54.949Z,4.43
2022-11-07T11:15:29.944Z,6.85
2022-11-07T11:18:06.365Z,4.45
2022-11-07T11:20:40.892Z,7.63
2022-11-07T11:23:19.861Z,4.90
2022-11-07T11:25:50.532Z,4.88
2022-11-07T11:28:33.431Z,4.13
2022-11-07T11:31:09.880Z,7.68
2022-11-07T11:33:49.626Z,4.75
2022-11-07T11:36:24.290Z,8.85
2022-11-07T11:38:54.921Z,3.78
2022-11-07T11:41:32.385Z,8.00
2022-11-07T11:44:23.196Z,6.70
2022-11-07T11:47:03.360Z,6.55
2022-11-07T11:49:32.640Z,5.90
2022-11-07T11:52:22.456Z,7.18
2022-11-07T11:54:52.523Z,9.60
2022-11-07T11:57:33.697Z,6.88
2022-11-07T12:00:10.365Z,9.73
2022-11-07T12:03:20.081Z,12.07
2022-11-07T12:06:08.723Z,8.50
2022-11-07T12:09:04.173Z,7.70
2022-11-07T12:11:54.809Z,10.00
2022-11-07T12:15:09.799Z,8.45
2022-11-07T12:18:00.172Z,7.53
2022-11-07T12:21:15.203Z,10.07
2022-11-07T12:24:20.517Z,6.32
2022-11-07T12:27:03.405Z,8.63
2022-11-07T12:29:59.319Z,8.80
2022-11-07T12:32:50.112Z,10.30
2022-11-07T12:35:41.669Z,9.38
2022-11-07T12:38:29.913Z,7.40
2022-11-07T12:41:36.011Z,9.90
2022-11-07T12:44:26.871Z,10.50
2022-11-07T12:47:01.258Z,7.15
2022-11-07T12:50:16.611Z,8.18
2022-11-07T12:53:11.043Z,12.38
2022-11-07T12:55:50.236Z,6.78
2022-11-07T12:58:28.496Z,7.22
2022-11-07T13:00:56.283Z,8.95
2022-11-07T13:03:59.280Z,8.65
2022-11-07T13:07:11.412Z,10.45
2022-11-07T13:10:04.286Z,7.45
2022-11-07T13:12:47.290Z,9.77
2022-11-07T13:15:16.597Z,12.15
2022-11-07T13:17:46.915Z,8.32
2022-11-07T13:20:29.261Z,7.88
2022-11-07T13:23:00.485Z,9.35
2022-11-07T13:25:31.185Z,13.40
2022-11-07T13:27:58.248Z,11.13
2022-11-07T13:30:31.393Z,12.00
2022-11-07T13:33:00.583Z,12.32
2022-11-07T13:35:40.330Z,11.02
2022-11-07T13:38:16.847Z,7.80
2022-11-07T13:41:06.450Z,9.65
2022-11-07T13:43:58.623Z,10.23
2022-11-07T13:46:43.532Z,7.20
2022-11-07T13:49:29.821Z,9.98
2022-11-07T13:52:03.617Z,11.57
2022-11-07T13:54:57.577Z,10.35
2022-11-07T13:57:31.164Z,9.48
2022-11-07T14:00:14.398Z,9.23
2022-11-07T14:02:54.645Z,7.57
2022-11-07T14:05:35.238Z,8.43
2022-11-07T14:08:19.789Z,10.57
2022-11-07T14:10:50.384Z,8.63
2022-11-07T14:13:44.010Z,8.27
2022-11-07T14:16:38.040Z,7.97
2022-11-07T14:19:12.854Z,13.18
2022-11-07T14:21:44.728Z,6.90
2022-11-07T14:24:20.793Z,8.52
2022-11-07T14:26:58.392Z,7.35
2022-11-07T14:29:25.672Z,10.30
2022-11-07T14:31:53.155Z,9.60
2022-11-07T14:34:22.677Z,8.45
2022-11-07T14:36:59.057Z,9.30
2022-11-07T14:39:31.042Z,8.43
2022-11-07T14:42:02.099Z,9.52
2022-11-07T14:44:54.021Z,9.77
2022-11-07T14:47:31.994Z,9.00
2022-11-07T14:50:01.971Z,10.50
2022-11-07T14:52:48.420Z,10.80
2022-11-07T14:55:31.077Z,11.85
2022-11-07T14:58:03.832Z,9.95
2022-11-07T15:00:32.690Z,7.95
2022-11-07T15:03:01.231Z,8.85
2022-11-07T15:05:37.469Z,11.07
2022-11-07T15:08:04.800Z,10.13
2022-11-07T15:10:36.877Z,9.40
2022-11-07T15:13:25.801Z,9.40
2022-11-07T15:16:16.978Z,9.60
2022-11-07T15:18:48.973Z,7.90
2022-11-07T15:21:39.237Z,6.88
2022-11-07T15:24:32.581Z,8.90
2022-11-07T15:27:23.153Z,8.25
2022-11-07T15:29:58.992Z,8.80
2022-11-07T15:32:45.454Z,6.60
2022-11-07T15:35:42.892Z,10.98
2022-11-07T15:38:16.602Z,9.05
2022-11-07T15:40:43.980Z,10.00
2022-11-07T15:43:11.067Z,6.32
2022-11-07T15:45:38.216Z,6.35
2022-11-07T15:48:07.888Z,13.65
2022-11-07T15:50:42.457Z,12.80
2022-11-07T15:53:23.737Z,7.15
2022-11-07T15:55:58.087Z,10.52
2022-11-07T15:58:28.569Z,18.73
2022-11-07T16:00:57.401Z,13.70
2022-11-07T16:03:26.121Z,15.13
2022-11-07T16:05:55.920Z,8.48
2022-11-07T16:08:24.693Z,12.43
2022-11-07T16:10:56.244Z,12.95
2022-11-07T16:13:23.375Z,11.63
2022-11-07T16:16:01.254Z,14.90
2022-11-07T16:18:36.404Z,14.35
2022-11-07T16:21:03.804Z,18.58
2022-11-07T16:23:30.916Z,13.95
2022-11-07T16:25:58.647Z,12.73
2022-11-07T16:28:40.345Z,21.33
2022-11-07T16:31:10.193Z,22.65
2022-11-07T16:33:37.304Z,11.50
2022-11-07T16:36:21.965Z,19.88
2022-11-07T16:38:49.413Z,11.27
2022-11-07T16:41:16.614Z,10.80
2022-11-07T16:43:59.228Z,8.27
2022-11-07T16:46:44.467Z,11.25
2022-11-07T16:49:34.054Z,8.68
2022-11-07T16:52:01.784Z,13.35
2022-11-07T16:54:29.085Z,13.73
2022-11-07T16:56:56.767Z,14.15
2022-11-07T16:59:24.979Z,17.45
2022-11-07T17:01:53.528Z,13.85
2022-11-07T17:04:20.768Z,11.77
2022-11-07T17:06:48.326Z,8.68
2022-11-07T17:09:17.288Z,8.73
2022-11-07T17:11:45.582Z,8.55
2022-11-07T17:14:13.043Z,7.45
2022-11-07T17:16:44.531Z,12.07
2022-11-07T17:19:13.443Z,8.25
2022-11-07T17:21:46.290Z,13.38
2022-11-07T17:24:13.929Z,11.13
2022-11-07T17:26:41.522Z,9.82
2022-11-07T17:29:14.763Z,8.80
2022-11-07T17:31:42.825Z,9.98
2022-11-07T17:34:10.546Z,11.20
2022-11-07T17:36:46.134Z,13.32
2022-11-07T17:39:21.822Z,8.88
2022-11-07T17:41:51.324Z,11.38
2022-11-07T17:44:19.462Z,9.20
2022-11-07T17:46:49.952Z,10.93
2022-11-07T17:49:19.684Z,8.90
2022-11-07T17:51:46.965Z,9.13
2022-11-07T17:54:15.834Z,13.13
2022-11-07T17:56:43.737Z,13.23
2022-11-07T17:59:17.510Z,9.65
2022-11-07T18:01:46.117Z,15.27
2022-11-07T18:04:40.326Z,18.08
2022-11-07T18:07:07.930Z,10.70
2022-11-07T18:09:35.679Z,19.55
2022-11-07T18:12:04.817Z,14.65
2022-11-07T18:14:33.189Z,12.32
2022-11-07T18:17:00.323Z,15.05
2022-11-07T18:19:48.491Z,14.52
2022-11-07T18:22:15.943Z,27.38
2022-11-07T18:24:43.281Z,15.50
2022-11-07T18:27:10.867Z,11.38
2022-11-07T18:29:42.231Z,13.40
2022-11-07T18:32:09.492Z,11.05
2022-11-07T18:34:36.597Z,14.13
2022-11-07T18:37:03.802Z,14.13
2022-11-07T18:39:30.944Z,18.30
2022-11-07T18:41:58.454Z,20.83
2022-11-07T18:44:25.596Z,13.18
2022-11-07T18:46:52.638Z,14.98
2022-11-07T18:49:19.794Z,12.65
2022-11-07T18:51:46.933Z,10.40
2022-11-07T18:54:14.429Z,12.90
2022-11-07T18:56:42.555Z,13.90
2022-11-07T18:59:10.536Z,11.63
2022-11-07T19:01:37.781Z,9.13
2022-11-07T19:04:06.919Z,21.42
2022-11-07T19:06:34.412Z,20.90
2022-11-07T19:09:01.779Z,16.13
2022-11-07T19:11:34.133Z,19.90
2022-11-07T19:14:06.048Z,19.70
2022-11-07T19:16:33.186Z,24.98
2022-11-07T19:19:00.762Z,23.35
2022-11-07T19:21:28.019Z,18.65
2022-11-07T19:23:59.481Z,15.63
2022-11-07T19:26:26.890Z,13.07
2022-11-07T19:28:56.629Z,13.98
2022-11-07T19:31:23.901Z,17.95
2022-11-07T19:33:51.112Z,13.85
2022-11-07T19:36:23.774Z,9.50
2022-11-07T19:38:51.391Z,12.90
2022-11-07T19:41:21.983Z,11.75
2022-11-07T19:43:50.299Z,13.85
2022-11-07T19:46:24.844Z,10.77
2022-11-07T19:48:54.443Z,18.38
2022-11-07T19:51:24.792Z,17.45
2022-11-07T19:54:14.963Z,22.85
2022-11-07T19:56:42.194Z,14.52
2022-11-07T19:59:13.214Z,9.70
2022-11-07T20:01:40.479Z,12.32
2022-11-07T20:04:08.938Z,9.52
2022-11-07T20:06:38.525Z,14.80
2022-11-07T20:09:13.097Z,28.38
2022-11-07T20:11:40.287Z,10.95
2022-11-07T20:14:07.395Z,10.38
2022-11-07T20:16:37.844Z,15.65
2022-11-07T20:19:05.898Z,19.27
2022-11-07T20:21:36.276Z,20.08
2022-11-07T20:24:12.668Z,14.00
2022-11-07T20:26:42.801Z,11.88
2022-11-07T20:29:14.129Z,14.95
2022-11-07T20:31:44.122Z,14.13
2022-11-07T20:34:19.010Z,11.55
2022-11-07T20:36:54.020Z,14.00
2022-11-07T20:39:21.240Z,21.45
2022-11-07T20:41:48.183Z,18.40
2022-11-07T20:44:16.030Z,19.35
2022-11-07T20:46:45.497Z,13.20
2022-11-07T20:49:15.725Z,15.20
2022-11-07T20:51:44.165Z,15.32
2022-11-07T20:54:16.267Z,12.50
2022-11-07T20:56:44.212Z,17.55
2022-11-07T20:59:11.681Z,12.48
2022-11-07T21:01:38.842Z,15.85
2022-11-07T21:04:09.166Z,12.32
2022-11-07T21:06:36.612Z,12.43
2022-11-07T21:09:04.917Z,11.02
2022-11-07T21:11:32.605Z,13.18
2022-11-07T21:14:00.335Z,12.85
2022-11-07T21:16:27.731Z,13.20
2022-11-07T21:18:55.758Z,12.02
2022-11-07T21:21:27.596Z,15.07
2022-11-07T21:23:57.209Z,12.75
2022-11-07T21:26:28.756Z,14.23
2022-11-07T21:28:56.724Z,14.10
2022-11-07T21:31:28.735Z,16.77
2022-11-07T21:33:56.489Z,14.15
2022-11-07T21:36:34.030Z,15.68
2022-11-07T21:39:01.713Z,15.65
2022-11-07T21:41:30.777Z,15.63
2022-11-07T21:43:59.222Z,14.38
2022-11-07T21:46:39.893Z,16.23
2022-11-07T21:49:07.358Z,16.65
2022-11-07T21:51:35.893Z,15.48
2022-11-07T21:54:05.634Z,15.40
2022-11-07T21:56:36.581Z,12.18
2022-11-07T21:59:07.621Z,18.95
2022-11-07T22:01:37.141Z,16.35
2022-11-07T22:04:12.393Z,19.55
2022-11-07T22:06:43.925Z,19.00
2022-11-07T22:09:15.924Z,15.13
2022-11-07T22:11:43.173Z,20.08
2022-11-07T22:14:21.352Z,17.30
2022-11-07T22:16:49.999Z,15.20
2022-11-07T22:19:18.404Z,11.63
2022-11-07T22:21:45.453Z,16.65
2022-11-07T22:24:12.434Z,20.20
2022-11-07T22:26:39.486Z,10.60
2022-11-07T22:29:06.510Z,14.18
2022-11-07T22:31:33.529Z,15.15
2022-11-07T22:34:01.130Z,14.68
2022-11-07T22:36:29.186Z,18.13
2022-11-07T22:38:57.920Z,13.45
2022-11-07T22:41:27.092Z,14.45
2022-11-07T22:43:54.260Z,13.82
2022-11-07T22:46:24.236Z,14.40
2022-11-07T22:48:52.900Z,24.10
2022-11-07T22:51:26.163Z,15.13
2022-11-07T22:54:05.770Z,11.10
2022-11-07T22:56:35.387Z,14.52
2022-11-07T22:59:04.076Z,9.18
2022-11-07T23:01:35.324Z,13.90
2022-11-07T23:04:02.720Z,14.93
2022-11-07T23:06:30.315Z,15.25
2022-11-07T23:08:58.769Z,13.45
2022-11-07T23:11:45.905Z,16.05
2022-11-07T23:14:16.143Z,15.55
2022-11-07T23:16:47.927Z,17.50
2022-11-07T23:19:17.641Z,15.18
2022-11-07T23:21:44.759Z,14.10
2022-11-07T23:24:12.166Z,15.07
2022-11-07T23:26:39.534Z,15.13
2022-11-07T23:29:11.646Z,14.63
2022-11-07T23:31:45.573Z,19.20
2022-11-07T23:34:13.660Z,13.35
2022-11-07T23:36:46.592Z,13.45
2022-11-07T23:39:17.442Z,14.85
2022-11-07T23:41:47.330Z,14.75
2022-11-07T23:44:15.465Z,13.43
2022-11-07T23:47:01.413Z,14.35
2022-11-07T23:49:47.121Z,25.45
2022-11-07T23:52:14.996Z,15.30
2022-11-07T23:55:00.636Z,14.43
2022-11-07T23:57:27.619Z,16.48
